Time;durP1;ratioP1;P1;durP2;ratioP2;P2;SDS_P1;SDS_P2;PMS_P1;PMS_P2;Temp;Humidity;BMP_temperature;BMP_pressure;BME280_temperature;BME280_humidity;BME280_pressure;Samples;Min_cycle;Max_cycle;Signal;HPM_P1;HPM_P2
2023/04/19 00:01:48;;;;;;;;;;;;;;;15.36;47.63;101438.34;4943122;28;6927;-78
2023/04/19 00:04:14;;;;;;;;;;;;;;;15.36;48.72;101433.16;4923870;28;7218;-77
2023/04/19 00:06:40;;;;;;;;;;;;;;;15.36;48.40;101420.25;4944903;28;6772;-77
2023/04/19 00:09:07;;;;;;;;;;;;;;;15.35;48.16;101434.84;4961977;28;9423;-77
2023/04/19 00:11:33;;;;;;;;;;;;;;;15.36;48.29;101428.00;4944626;28;6979;-77
2023/04/19 00:13:59;;;;;;;;;;;;;;;15.36;48.19;101435.75;4946120;28;7042;-77
2023/04/19 00:16:24;;;;;;;;;;;;;;;15.38;47.87;101439.28;4947874;28;6772;-78
2023/04/19 00:18:50;;;;;;;;;;;;;;;15.36;48.64;101440.91;4960035;28;7900;-77
2023/04/19 00:21:16;;;;;;;;;;;;;;;15.36;48.10;101438.34;4942948;28;6772;-75
2023/04/19 00:23:41;;;;;;;;;;;;;;;15.36;48.02;101430.59;4941464;28;7025;-77
2023/04/19 00:26:07;;;;;;;;;;;;;;;15.35;48.19;101433.97;4942054;28;6836;-74
2023/04/19 00:28:33;;;;;;;;;;;;;;;15.34;48.39;101433.09;4958032;28;6812;-77
2023/04/19 00:30:59;;;;;;;;;;;;;;;15.31;48.14;101430.38;4939611;28;6983;-77
2023/04/19 00:33:25;;;;;;;;;;;;;;;15.30;48.03;101431.19;4944099;28;7467;-78
2023/04/19 00:35:50;;;;;;;;;;;;;;;15.29;47.95;101439.75;4956667;28;6856;-77
2023/04/19 00:38:16;;;;;;;;;;;;;;;15.27;48.58;101434.50;4958225;28;7139;-74
2023/04/19 00:40:42;;;;;;;;;;;;;;;15.28;48.24;101438.00;4941611;28;7042;-76
2023/04/19 00:43:07;;;;;;;;;;;;;;;15.26;48.79;101442.22;4957162;28;6792;-75
2023/04/19 00:45:35;;;;;;;;;;;;;;;15.25;48.27;101437.84;4959217;28;6856;-77
2023/04/19 00:48:01;;;;;;;;;;;;;;;15.25;48.51;101440.41;4944268;28;7177;-77
2023/04/19 00:50:27;;;;;;;;;;;;;;;15.24;48.46;101433.50;4956813;28;7018;-77
2023/04/19 00:52:55;;;;;;;;;;;;;;;15.24;48.40;101433.50;4938042;28;7065;-77
2023/04/19 00:55:23;;;;;;;;;;;;;;;15.23;48.65;101418.81;4957529;28;7023;-75
2023/04/19 00:57:50;;;;;;;;;;;;;;;15.21;48.91;101425.63;4958385;28;6841;-77
2023/04/19 01:00:17;;;;;;;;;;;;;;;15.20;48.09;101413.53;4939412;28;7203;-75
2023/04/19 01:02:42;;;;;;;;;;;;;;;15.17;48.68;101418.56;4938170;28;6828;-77
2023/04/19 01:05:08;;;;;;;;;;;;;;;15.12;48.28;101420.94;4958975;28;6776;-75
2023/04/19 01:07:34;;;;;;;;;;;;;;;15.06;48.74;101413.75;4955465;28;6792;-77
2023/04/19 01:09:59;;;;;;;;;;;;;;;15.03;49.04;101413.63;4946175;28;6883;-77
2023/04/19 01:12:25;;;;;;;;;;;;;;;14.99;49.44;101416.91;4953792;28;7176;-75
2023/04/19 01:14:51;;;;;;;;;;;;;;;14.97;49.15;101414.22;4943462;28;7804;-77
2023/04/19 01:17:18;;;;;;;;;;;;;;;14.95;49.00;101412.38;4956132;28;7228;-77
2023/04/19 01:19:45;;;;;;;;;;;;;;;14.96;48.99;101408.97;4943247;28;6964;-77
2023/04/19 01:22:23;;;;;;;;;;;;;;;14.96;48.94;101419.31;4936611;28;7240;-77
2023/04/19 01:24:50;;;;;;;;;;;;;;;14.95;48.87;101413.28;4941819;28;7072;-78
2023/04/19 01:27:16;;;;;;;;;;;;;;;14.96;49.50;101408.97;4956787;28;7081;-78
2023/04/19 01:29:42;;;;;;;;;;;;;;;14.97;49.40;101408.19;4941850;28;7315;-77
2023/04/19 01:32:08;;;;;;;;;;;;;;;14.97;49.07;101413.38;4939902;28;6784;-77
2023/04/19 01:34:34;;;;;;;;;;;;;;;14.96;49.57;101408.97;4955639;28;7127;-77
2023/04/19 01:36:59;;;;;;;;;;;;;;;14.98;49.25;101408.25;4955026;28;7232;-74
2023/04/19 01:39:26;;;;;;;;;;;;;;;14.99;49.68;101416.91;4942591;28;6806;-77
2023/04/19 01:41:51;;;;;;;;;;;;;;;14.97;49.74;101410.78;4939747;28;7007;-78
2023/04/19 01:44:17;;;;;;;;;;;;;;;14.99;49.25;101415.19;4942353;28;6996;-77
2023/04/19 01:46:43;;;;;;;;;;;;;;;14.98;49.31;101413.41;4956546;28;7228;-75
2023/04/19 01:49:08;;;;;;;;;;;;;;;14.99;49.33;101409.16;4943732;28;7225;-78
2023/04/19 01:51:34;;;;;;;;;;;;;;;15.00;49.40;101413.50;4938328;28;6893;-77
2023/04/19 01:54:01;;;;;;;;;;;;;;;15.00;49.16;101410.91;4933846;28;6996;-78
2023/04/19 01:56:27;;;;;;;;;;;;;;;15.00;49.37;101405.75;4940361;28;6814;-77
2023/04/19 01:58:52;;;;;;;;;;;;;;;14.98;49.40;101403.09;4943394;28;6836;-77
2023/04/19 02:01:18;;;;;;;;;;;;;;;14.95;49.64;101402.06;4957244;28;8451;-75
2023/04/19 02:03:44;;;;;;;;;;;;;;;14.87;49.48;101401.72;4956527;28;6783;-77
2023/04/19 02:06:11;;;;;;;;;;;;;;;14.80;49.19;101400.56;4940672;28;6785;-77
2023/04/19 02:08:38;;;;;;;;;;;;;;;14.72;49.79;101399.28;4941520;28;7054;-77
2023/04/19 02:11:15;;;;;;;;;;;;;;;14.63;48.96;101396.25;4954023;28;6788;-77
2023/04/19 02:13:41;;;;;;;;;;;;;;;14.54;49.43;101399.28;4927601;28;7009;-77
2023/04/19 02:16:09;;;;;;;;;;;;;;;14.43;49.92;101398.78;4958381;28;7848;-77
2023/04/19 02:18:37;;;;;;;;;;;;;;;14.35;50.15;101393.25;4943888;28;6808;-74
2023/04/19 02:21:05;;;;;;;;;;;;;;;14.26;49.90;101396.25;4921071;28;7026;-77
2023/04/19 02:23:31;;;;;;;;;;;;;;;14.17;49.86;101393.22;4922578;28;7215;-77
2023/04/19 02:25:56;;;;;;;;;;;;;;;14.07;50.62;101384.16;4941074;28;6962;-74
2023/04/19 02:28:22;;;;;;;;;;;;;;;14.01;50.90;101389.91;4951853;28;6993;-76
2023/04/19 02:30:48;;;;;;;;;;;;;;;13.93;50.28;101388.63;4957388;28;6796;-77
2023/04/19 02:33:14;;;;;;;;;;;;;;;13.86;51.03;101381.38;4958917;28;7300;-77
2023/04/19 02:35:39;;;;;;;;;;;;;;;13.77;50.71;101386.97;4957593;28;6985;-77
2023/04/19 02:38:05;;;;;;;;;;;;;;;13.72;51.20;101393.56;4958194;28;6784;-77
2023/04/19 02:40:31;;;;;;;;;;;;;;;13.64;51.16;101392.28;4924732;29;7943;-77
2023/04/19 02:42:56;;;;;;;;;;;;;;;13.58;52.08;101390.28;4942669;28;6783;-74
2023/04/19 02:45:22;;;;;;;;;;;;;;;13.52;51.56;101395.13;4940612;28;7088;-75
2023/04/19 02:47:47;;;;;;;;;;;;;;;13.46;51.13;101404.31;4960299;28;6954;-77
2023/04/19 02:50:15;;;;;;;;;;;;;;;13.40;51.20;101401.38;4958670;28;7026;-76
2023/04/19 02:52:41;;;;;;;;;;;;;;;13.36;51.63;101402.03;4942205;28;7056;-74
2023/04/19 02:55:07;;;;;;;;;;;;;;;13.33;52.31;101399.31;4948526;28;6776;-74
2023/04/19 02:57:32;;;;;;;;;;;;;;;13.29;52.47;101399.94;4929314;28;7327;-77
2023/04/19 02:59:58;;;;;;;;;;;;;;;13.27;52.63;101404.97;4937372;28;7073;-74
2023/04/19 03:02:27;;;;;;;;;;;;;;;13.25;52.82;101400.56;4939509;28;7024;-77
2023/04/19 03:04:53;;;;;;;;;;;;;;;13.23;52.93;101404.72;4957516;28;6792;-76
2023/04/19 03:07:18;;;;;;;;;;;;;;;13.20;52.75;101400.34;4942058;28;7111;-77
2023/04/19 03:09:44;;;;;;;;;;;;;;;13.18;53.08;101402.81;4941092;28;6780;-75
2023/04/19 03:12:09;;;;;;;;;;;;;;;13.16;52.77;101399.28;4939636;28;6986;-76
2023/04/19 03:14:35;;;;;;;;;;;;;;;13.15;52.91;101396.63;4960419;28;6967;-76
2023/04/19 03:17:01;;;;;;;;;;;;;;;13.13;53.25;101391.38;4942675;28;6931;-74
2023/04/19 03:19:27;;;;;;;;;;;;;;;13.12;53.82;101397.31;4941921;28;6800;-76
2023/04/19 03:21:53;;;;;;;;;;;;;;;13.12;53.34;101389.59;4924642;28;6962;-74
2023/04/19 03:24:19;;;;;;;;;;;;;;;13.12;53.44;101391.31;4951368;28;6848;-77
2023/04/19 03:26:45;;;;;;;;;;;;;;;13.13;54.52;101396.53;4941979;28;6977;-77
2023/04/19 03:29:13;;;;;;;;;;;;;;;13.15;53.96;101392.38;4944310;28;7085;-77
2023/04/19 03:31:38;;;;;;;;;;;;;;;13.17;53.82;101393.31;4923477;28;7488;-75
2023/04/19 03:34:04;;;;;;;;;;;;;;;13.20;54.39;101388.31;4927153;28;6948;-76
2023/04/19 03:36:30;;;;;;;;;;;;;;;13.24;54.36;101388.50;4928482;28;7019;-77
2023/04/19 03:38:55;;;;;;;;;;;;;;;13.25;53.64;101393.72;4939886;28;6962;-73
2023/04/19 03:41:26;;;;;;;;;;;;;;;13.29;54.19;101394.78;4936606;28;7402;-75
2023/04/19 03:43:52;;;;;;;;;;;;;;;13.32;54.53;101390.69;4920301;28;10511;-75
2023/04/19 03:46:17;;;;;;;;;;;;;;;13.39;54.68;101388.44;4950751;28;10280;-74
2023/04/19 03:48:43;;;;;;;;;;;;;;;13.47;54.92;101377.75;4930895;28;7425;-74
2023/04/19 03:51:08;;;;;;;;;;;;;;;13.57;54.73;101375.66;4933161;28;7383;-75
2023/04/19 03:53:35;;;;;;;;;;;;;;;13.67;54.76;101374.44;4939503;28;8298;-75
2023/04/19 03:56:01;;;;;;;;;;;;;;;13.75;55.21;101378.25;4935400;28;7517;-75
2023/04/19 03:58:27;;;;;;;;;;;;;;;13.84;54.61;101377.84;4924468;28;7247;-75
2023/04/19 04:00:52;;;;;;;;;;;;;;;13.92;55.25;101370.50;4936982;28;6967;-75
2023/04/19 04:03:18;;;;;;;;;;;;;;;13.99;54.61;101372.59;4956355;28;7292;-74
2023/04/19 04:05:44;;;;;;;;;;;;;;;14.05;55.36;101364.28;4942387;28;6916;-74
2023/04/19 04:08:10;;;;;;;;;;;;;;;14.11;54.95;101378.34;4953239;28;6836;-75
2023/04/19 04:10:36;;;;;;;;;;;;;;;14.18;54.99;101374.34;4960142;28;6957;-75
2023/04/19 04:13:01;;;;;;;;;;;;;;;14.23;54.57;101372.00;4957439;28;6780;-75
2023/04/19 04:15:27;;;;;;;;;;;;;;;14.29;54.33;101378.38;4939937;28;7305;-75
2023/04/19 04:17:52;;;;;;;;;;;;;;;14.33;54.81;101370.78;4943182;28;6776;-75
2023/04/19 04:20:18;;;;;;;;;;;;;;;14.38;54.12;101377.91;4959272;28;6983;-75
2023/04/19 04:22:47;;;;;;;;;;;;;;;14.41;54.80;101372.91;4945455;28;7031;-75
2023/04/19 04:25:16;;;;;;;;;;;;;;;14.45;54.01;101379.09;4945468;28;6800;-75
2023/04/19 04:27:45;;;;;;;;;;;;;;;14.50;54.29;101387.03;4945038;28;7114;-75
2023/04/19 04:30:11;;;;;;;;;;;;;;;14.52;54.73;101388.91;4945230;28;6804;-75
2023/04/19 04:32:39;;;;;;;;;;;;;;;14.55;53.81;101385.59;4941963;28;7318;-75
2023/04/19 04:35:07;;;;;;;;;;;;;;;14.57;54.93;101389.97;4948188;28;6796;-75
2023/04/19 04:37:34;;;;;;;;;;;;;;;14.60;54.54;101393.53;4959099;28;7831;-75
2023/04/19 04:40:01;;;;;;;;;;;;;;;14.62;53.99;101397.06;4940495;28;7183;-75
2023/04/19 04:42:26;;;;;;;;;;;;;;;14.64;54.09;101395.44;4941107;28;6978;-75
2023/04/19 04:44:56;;;;;;;;;;;;;;;14.65;54.27;101397.19;4926132;28;7414;-75
2023/04/19 04:47:32;;;;;;;;;;;;;;;14.66;54.44;101399.88;4946784;28;6807;-75
2023/04/19 04:49:59;;;;;;;;;;;;;;;14.67;54.17;101393.00;4957833;28;6940;-75
2023/04/19 04:52:24;;;;;;;;;;;;;;;14.69;53.81;101389.69;4946367;28;8485;-75
2023/04/19 04:54:50;;;;;;;;;;;;;;;14.70;53.62;101396.59;4944672;28;6769;-75
2023/04/19 04:57:16;;;;;;;;;;;;;;;14.71;54.05;101393.22;4944032;28;6955;-75
2023/04/19 04:59:41;;;;;;;;;;;;;;;14.71;54.09;101397.50;4946501;28;6768;-75
2023/04/19 05:02:07;;;;;;;;;;;;;;;14.71;53.42;101400.94;4934870;28;6948;-75
2023/04/19 05:04:32;;;;;;;;;;;;;;;14.74;53.96;101396.81;4942836;28;6955;-75
2023/04/19 05:06:58;;;;;;;;;;;;;;;14.75;53.86;101393.41;4952561;28;7400;-75
2023/04/19 05:09:24;;;;;;;;;;;;;;;14.76;53.21;101395.19;4939728;28;6768;-75
2023/04/19 05:11:50;;;;;;;;;;;;;;;14.78;53.96;101393.53;4942228;28;9808;-75
2023/04/19 05:14:16;;;;;;;;;;;;;;;14.77;53.08;101391.78;4939169;28;7169;-75
2023/04/19 05:16:42;;;;;;;;;;;;;;;14.76;53.93;101398.63;4941905;28;7146;-77
2023/04/19 05:19:07;;;;;;;;;;;;;;;14.76;53.17;101398.63;4940105;28;7246;-77
2023/04/19 05:21:33;;;;;;;;;;;;;;;14.77;53.75;101402.97;4943710;28;6792;-74
2023/04/19 05:23:59;;;;;;;;;;;;;;;14.78;54.10;101394.44;4933851;28;7904;-75
2023/04/19 05:26:24;;;;;;;;;;;;;;;14.81;54.01;101399.72;4943705;28;7207;-75
2023/04/19 05:28:50;;;;;;;;;;;;;;;14.83;53.51;101395.53;4942860;28;7765;-75
2023/04/19 05:31:17;;;;;;;;;;;;;;;14.89;53.54;101396.63;4954913;28;7028;-75
2023/04/19 05:33:42;;;;;;;;;;;;;;;14.93;53.05;101395.94;4945487;28;7214;-75
2023/04/19 05:36:08;;;;;;;;;;;;;;;14.95;53.68;101402.97;4935484;28;7109;-75
2023/04/19 05:38:34;;;;;;;;;;;;;;;14.97;53.35;101397.88;4942424;28;7262;-75
2023/04/19 05:41:01;;;;;;;;;;;;;;;15.00;53.31;101392.84;4944383;28;7171;-76
2023/04/19 05:43:26;;;;;;;;;;;;;;;15.04;52.87;101384.41;4944910;28;7226;-75
2023/04/19 05:45:52;;;;;;;;;;;;;;;15.07;53.00;101391.41;4942058;28;6776;-75
2023/04/19 05:48:18;;;;;;;;;;;;;;;15.10;52.70;101391.53;4941285;28;6853;-76
2023/04/19 05:50:43;;;;;;;;;;;;;;;15.12;52.92;101385.66;4939702;28;7306;-75
2023/04/19 05:53:09;;;;;;;;;;;;;;;15.16;52.84;101386.66;4936766;28;6995;-75
2023/04/19 05:55:34;;;;;;;;;;;;;;;15.21;52.53;101389.47;4959670;28;6776;-75
2023/04/19 05:58:00;;;;;;;;;;;;;;;15.24;52.78;101382.75;4940827;28;10142;-75
2023/04/19 06:00:27;;;;;;;;;;;;;;;15.28;52.81;101391.50;4942427;28;7181;-75
2023/04/19 06:02:52;;;;;;;;;;;;;;;15.31;52.60;101391.63;4937347;28;7301;-75
2023/04/19 06:05:18;;;;;;;;;;;;;;;15.34;52.34;101388.31;4944656;28;7913;-75
2023/04/19 06:07:43;;;;;;;;;;;;;;;15.37;52.33;101391.03;4939087;28;6997;-76
2023/04/19 06:10:09;;;;;;;;;;;;;;;15.39;52.01;101394.53;4958217;28;6848;-75
2023/04/19 06:12:35;;;;;;;;;;;;;;;15.39;51.57;101392.84;4941932;28;6987;-75
2023/04/19 06:15:00;;;;;;;;;;;;;;;15.37;51.77;101397.09;4943441;28;6841;-75
2023/04/19 06:17:26;;;;;;;;;;;;;;;15.35;51.76;101390.94;4939414;28;6926;-75
2023/04/19 06:19:53;;;;;;;;;;;;;;;15.34;51.40;101396.94;4945015;28;7089;-75
2023/04/19 06:22:20;;;;;;;;;;;;;;;15.34;51.83;101391.75;4940527;28;7268;-75
2023/04/19 06:24:48;;;;;;;;;;;;;;;15.34;51.70;101401.22;4941509;28;7338;-75
2023/04/19 06:27:15;;;;;;;;;;;;;;;15.35;51.44;101403.84;4959125;28;6951;-75
2023/04/19 06:29:41;;;;;;;;;;;;;;;15.36;51.45;101405.66;4940891;28;7131;-76
2023/04/19 06:32:08;;;;;;;;;;;;;;;15.36;51.34;101405.66;4943477;28;6788;-75
2023/04/19 06:34:34;;;;;;;;;;;;;;;15.37;51.34;101404.84;4942847;28;7241;-75
2023/04/19 06:36:59;;;;;;;;;;;;;;;15.36;50.82;101404.75;4939053;28;6916;-75
2023/04/19 06:39:26;;;;;;;;;;;;;;;15.36;50.82;101404.75;4942803;28;6890;-75
2023/04/19 06:41:51;;;;;;;;;;;;;;;15.38;50.64;101405.69;4940709;28;6977;-75
2023/04/19 06:44:18;;;;;;;;;;;;;;;15.37;50.48;101407.41;4938437;28;6772;-75
2023/04/19 06:46:43;;;;;;;;;;;;;;;15.39;50.09;101402.28;4927033;28;7891;-75
2023/04/19 06:49:09;;;;;;;;;;;;;;;15.40;50.11;101404.06;4924764;28;6970;-75
2023/04/19 06:51:36;;;;;;;;;;;;;;;15.42;50.57;101399.88;4946125;28;6789;-75
2023/04/19 06:54:02;;;;;;;;;;;;;;;15.46;50.01;101406.06;4941500;28;6999;-74
2023/04/19 06:56:46;;;;;;;;;;;;;;;15.51;49.95;101405.44;4945566;28;6971;-74
2023/04/19 06:59:16;;;;;;;;;;;;;;;15.54;50.04;101402.09;4940688;28;10144;-74
2023/04/19 07:01:42;;;;;;;;;;;;;;;15.58;49.74;101406.59;4945781;28;6915;-75
2023/04/19 07:04:08;;;;;;;;;;;;;;;15.64;49.86;101411.13;4946687;28;6800;-75
2023/04/19 07:06:38;;;;;;;;;;;;;;;15.71;49.44;101407.09;4942193;28;7168;-75
2023/04/19 07:09:06;;;;;;;;;;;;;;;15.75;48.64;101409.03;4942758;28;7169;-76
2023/04/19 07:11:32;;;;;;;;;;;;;;;15.80;48.79;101404.91;4947055;28;6800;-75
2023/04/19 07:14:01;;;;;;;;;;;;;;;15.88;48.18;101400.06;4944666;28;6896;-76
2023/04/19 07:16:28;;;;;;;;;;;;;;;15.95;48.73;101397.84;4960163;28;7295;-76
2023/04/19 07:18:53;;;;;;;;;;;;;;;16.04;48.06;101396.47;4944521;28;6848;-75
2023/04/19 07:21:19;;;;;;;;;;;;;;;16.12;47.96;101389.03;4946500;28;8594;-75
2023/04/19 07:23:44;;;;;;;;;;;;;;;16.19;47.49;101391.06;4944943;28;7522;-75
2023/04/19 07:26:10;;;;;;;;;;;;;;;16.22;46.66;101392.06;4940716;28;6768;-75
2023/04/19 07:28:38;;;;;;;;;;;;;;;16.29;46.85;101397.47;4944204;28;6764;-75
2023/04/19 07:31:04;;;;;;;;;;;;;;;16.36;46.53;101399.47;4961458;28;6983;-74
2023/04/19 07:33:30;;;;;;;;;;;;;;;16.44;46.11;101397.19;4946013;28;7211;-75
2023/04/19 07:35:55;;;;;;;;;;;;;;;16.55;46.19;101390.72;4941718;28;6764;-75
2023/04/19 07:38:21;;;;;;;;;;;;;;;16.66;46.03;101388.56;4944586;28;7679;-75
2023/04/19 07:40:47;;;;;;;;;;;;;;;16.76;45.60;101388.09;4959877;28;6964;-75
2023/04/19 07:43:13;;;;;;;;;;;;;;;16.86;45.58;101386.75;4939543;28;7180;-75
2023/04/19 07:45:39;;;;;;;;;;;;;;;16.92;44.89;101392.16;4960312;28;6776;-74
2023/04/19 07:48:05;;;;;;;;;;;;;;;16.92;44.45;101394.75;4960826;28;6800;-75
2023/04/19 07:50:30;;;;;;;;;;;;;;;16.95;45.07;101396.56;4948294;28;6788;-75
2023/04/19 07:52:56;;;;;;;;;;;;;;;16.97;44.55;101394.06;4942777;28;7112;-75
2023/04/19 07:55:22;;;;;;;;;;;;;;;16.97;43.85;101394.06;4943929;28;7829;-75
2023/04/19 07:57:49;;;;;;;;;;;;;;;16.93;43.68;101399.09;4957405;28;6844;-75
2023/04/19 08:00:17;;;;;;;;;;;;;;;16.89;43.35;101398.91;4943053;28;6812;-72
2023/04/19 08:02:47;;;;;;;;;;;;;;;16.85;43.22;101395.34;4947339;28;6995;-78
2023/04/19 08:05:18;;;;;;;;;;;;;;;16.82;43.18;101391.75;4965401;28;6816;-76
2023/04/19 08:07:44;;;;;;;;;;;;;;;16.86;43.26;101389.34;4970135;28;7043;-76
2023/04/19 08:10:11;;;;;;;;;;;;;;;16.90;43.34;101388.63;4948466;28;6953;-76
2023/04/19 08:12:37;;;;;;;;;;;;;;;16.91;43.11;101386.94;4950804;28;6947;-74
2023/04/19 08:15:06;;;;;;;;;;;;;;;16.96;42.95;101390.56;4978259;23;7139;-79
2023/04/19 08:17:32;;;;;;;;;;;;;;;17.03;42.69;101392.59;4928542;28;6924;-81
2023/04/19 08:20:00;;;;;;;;;;;;;;;17.08;42.65;101383.28;4930119;28;6854;-84
2023/04/19 08:22:25;;;;;;;;;;;;;;;17.14;43.16;101384.34;4940218;28;6970;-81
2023/04/19 08:24:52;;;;;;;;;;;;;;;17.20;42.79;101388.03;4943919;28;8086;-81
2023/04/19 08:27:18;;;;;;;;;;;;;;;17.24;42.86;101378.66;4929404;28;8543;-83
2023/04/19 08:29:44;;;;;;;;;;;;;;;17.29;42.26;101389.19;4947082;28;7249;-81
2023/04/19 08:32:11;;;;;;;;;;;;;;;17.29;42.08;101391.78;4956847;28;8773;-80
2023/04/19 08:34:39;;;;;;;;;;;;;;;17.29;42.17;101376.25;4960540;28;6800;-81
2023/04/19 08:37:09;;;;;;;;;;;;;;;17.31;42.10;101369.41;4930040;28;8449;-81
2023/04/19 08:39:34;;;;;;;;;;;;;;;17.35;41.66;101377.34;4929750;28;8475;-82
2023/04/19 08:42:07;;;;;;;;;;;;;;;17.43;41.11;101379.31;4944172;28;7408;-81
2023/04/19 08:44:34;;;;;;;;;;;;;;;17.51;41.42;101377.00;4942627;28;7321;-81
2023/04/19 08:47:00;;;;;;;;;;;;;;;17.55;40.96;101363.34;4933629;28;8438;-82
2023/04/19 08:49:29;;;;;;;;;;;;;;;17.61;40.92;101368.72;4946782;28;6966;-81
2023/04/19 08:51:57;;;;;;;;;;;;;;;17.62;41.01;101365.28;4943403;28;8529;-81
2023/04/19 08:54:23;;;;;;;;;;;;;;;17.60;40.14;101357.47;4948044;28;7171;-82
2023/04/19 08:56:49;;;;;;;;;;;;;;;17.57;40.68;101362.53;4928067;28;8435;-81
2023/04/19 08:59:14;;;;;;;;;;;;;;;17.58;40.70;101360.84;4942363;28;8402;-81
2023/04/19 09:01:40;;;;;;;;;;;;;;;17.62;40.84;101350.63;4920918;28;8615;-81
2023/04/19 09:04:06;;;;;;;;;;;;;;;17.69;40.32;101350.84;4902494;29;8445;-81
2023/04/19 09:06:40;;;;;;;;;;;;;;;17.76;40.45;101352.78;4946447;28;6792;-81
2023/04/19 09:09:22;;;;;;;;;;;;;;;17.89;40.43;101354.09;4923979;28;8812;-82
2023/04/19 09:11:48;;;;;;;;;;;;;;;18.02;40.53;101358.88;4950533;28;7243;-81
2023/04/19 09:14:17;;;;;;;;;;;;;;;18.17;39.66;101355.03;4923876;28;7187;-81
2023/04/19 09:16:44;;;;;;;;;;;;;;;18.28;39.81;101352.78;4903000;29;8481;-81
2023/04/19 09:19:11;;;;;;;;;;;;;;;18.37;39.51;101347.88;4928717;28;6796;-81
2023/04/19 09:21:38;;;;;;;;;;;;;;;18.45;39.59;101340.31;4926169;28;7126;-81
2023/04/19 09:24:05;;;;;;;;;;;;;;;18.61;38.96;101336.47;4929339;28;7016;-81
2023/04/19 09:26:32;;;;;;;;;;;;;;;18.80;38.44;101340.50;4918513;29;6800;-81
2023/04/19 09:29:06;;;;;;;;;;;;;;;19.07;38.39;101331.72;4917148;28;8380;-81
2023/04/19 09:31:37;;;;;;;;;;;;;;;19.55;37.69;101327.81;4922932;28;8468;-81
2023/04/19 09:34:18;;;;;;;;;;;;;;;20.03;36.30;101333.34;4911368;28;8691;-82
2023/04/19 09:36:44;;;;;;;;;;;;;;;20.45;35.78;101325.59;4915510;28;8788;-81
2023/04/19 09:39:11;;;;;;;;;;;;;;;20.88;34.90;101331.78;4939274;28;6934;-81
2023/04/19 09:41:53;;;;;;;;;;;;;;;21.33;34.01;101316.09;4931477;28;6932;-81
2023/04/19 09:44:20;;;;;;;;;;;;;;;21.64;33.34;101314.03;4920452;28;6956;-82
2023/04/19 09:46:48;;;;;;;;;;;;;;;21.84;32.55;101316.13;4910566;28;8664;-82
2023/04/19 09:49:16;;;;;;;;;;;;;;;21.99;32.07;101316.34;4917630;28;7001;-81
2023/04/19 09:51:55;;;;;;;;;;;;;;;22.17;31.46;101315.75;4925450;28;8908;-81
2023/04/19 09:54:24;;;;;;;;;;;;;;;22.40;31.18;101304.75;4931327;28;10033;-81
2023/04/19 09:56:51;;;;;;;;;;;;;;;22.68;31.03;101306.84;4935433;28;6788;-81
2023/04/19 09:59:18;;;;;;;;;;;;;;;22.98;30.89;101292.38;4914147;28;8496;-82
2023/04/19 10:01:55;;;;;;;;;;;;;;;23.25;29.23;101299.66;4913235;28;7199;-83
2023/04/19 10:04:22;;;;;;;;;;;;;;;23.29;29.27;101290.97;4917109;28;7106;-83
2023/04/19 10:06:53;;;;;;;;;;;;;;;23.42;29.42;101296.34;4925963;28;7148;-84
2023/04/19 10:09:21;;;;;;;;;;;;;;;23.55;28.33;101292.06;4925882;28;6805;-83
2023/04/19 10:11:53;;;;;;;;;;;;;;;23.59;28.28;101291.25;4905239;28;7052;-84
2023/04/19 10:14:26;;;;;;;;;;;;;;;23.63;28.67;101294.78;4919404;28;6868;-83
2023/04/19 10:16:52;;;;;;;;;;;;;;;23.68;27.66;101293.94;4918626;28;6980;-84
2023/04/19 10:19:21;;;;;;;;;;;;;;;23.68;27.53;101293.06;4913661;28;8410;-84
2023/04/19 10:21:50;;;;;;;;;;;;;;;23.58;27.15;101290.34;4926737;28;6855;-84
2023/04/19 10:24:20;;;;;;;;;;;;;;;23.49;27.17;101290.28;4923357;28;6820;-84
2023/04/19 10:27:05;;;;;;;;;;;;;;;23.44;26.32;101287.63;4928710;28;6972;-84
2023/04/19 10:30:02;;;;;;;;;;;;;;;23.06;26.83;101284.63;4918006;29;8409;-84
2023/04/19 10:32:58;;;;;;;;;;;;;;;22.40;26.99;101286.47;4941118;28;6879;-84
2023/04/19 10:35:32;;;;;;;;;;;;;;;22.25;26.88;101286.25;4916820;29;8456;-88
2023/04/19 10:38:15;;;;;;;;;;;;;;;22.17;26.93;101284.44;4945315;29;8355;-88
2023/04/19 10:40:50;;;;;;;;;;;;;;;22.27;27.15;101285.41;4927692;29;8450;-93
2023/04/19 10:43:17;;;;;;;;;;;;;;;22.34;26.77;101278.53;4941084;29;7193;-90
2023/04/19 10:45:44;;;;;;;;;;;;;;;22.49;26.44;101280.50;4949432;28;8443;-89
2023/04/19 10:48:35;;;;;;;;;;;;;;;22.71;26.55;101275.56;4946256;29;6804;-91
2023/04/19 10:51:03;;;;;;;;;;;;;;;22.67;26.20;101294.66;4946820;29;6976;-87
2023/04/19 10:53:51;;;;;;;;;;;;;;;22.60;26.08;101271.09;4949794;29;6955;-88
2023/04/19 10:56:20;;;;;;;;;;;;;;;22.59;26.22;101266.69;4940127;29;8439;-89
2023/04/19 11:01:49;;;;;;;;;;;;;;;22.80;25.88;101257.38;4930185;28;6767;-88
2023/04/19 11:04:31;;;;;;;;;;;;;;;22.96;25.37;101257.50;4915559;29;8723;-87
2023/04/19 11:07:00;;;;;;;;;;;;;;;23.00;25.39;101249.72;4941809;28;8476;-89
2023/04/19 11:09:52;;;;;;;;;;;;;;;23.13;25.23;101250.72;4904136;29;8623;-88
2023/04/19 11:12:20;;;;;;;;;;;;;;;23.23;24.52;101254.31;4932002;28;7220;-86
2023/04/19 11:14:58;;;;;;;;;;;;;;;23.31;23.90;101254.41;4912122;29;8791;-87
2023/04/19 11:17:31;;;;;;;;;;;;;;;23.28;24.18;101254.38;4927164;29;6804;-86
2023/04/19 11:20:08;;;;;;;;;;;;;;;22.97;24.20;101246.19;4946764;28;7182;-85
2023/04/19 11:22:40;;;;;;;;;;;;;;;22.81;24.53;101238.22;4938701;28;6801;-88
2023/04/19 11:25:08;;;;;;;;;;;;;;;22.67;23.91;101240.69;4929694;29;8464;-87
2023/04/19 11:27:34;;;;;;;;;;;;;;;22.39;24.25;101231.59;4926630;29;6796;-86
2023/04/19 11:30:07;;;;;;;;;;;;;;;22.32;24.75;101241.97;4912311;29;8482;-86
2023/04/19 11:32:35;;;;;;;;;;;;;;;22.42;24.26;101240.34;4928168;28;6963;-88
2023/04/19 11:35:06;;;;;;;;;;;;;;;22.64;24.00;101237.16;4915427;28;8491;-87
2023/04/19 11:37:35;;;;;;;;;;;;;;;22.90;23.84;101224.34;4914251;28;7410;-88
2023/04/19 11:40:00;;;;;;;;;;;;;;;23.02;23.51;101221.84;4934484;28;6981;-89
2023/04/19 11:42:26;;;;;;;;;;;;;;;23.15;23.83;101225.44;4912057;29;8372;-90
2023/04/19 11:44:53;;;;;;;;;;;;;;;23.38;23.32;101232.66;4915731;28;7433;-89
2023/04/19 11:47:19;;;;;;;;;;;;;;;23.57;22.66;101217.97;4929678;28;8656;-89
2023/04/19 11:49:45;;;;;;;;;;;;;;;23.67;22.44;101221.53;4924291;28;8485;-89
2023/04/19 11:52:11;;;;;;;;;;;;;;;23.78;21.95;101223.34;4935270;28;7013;-90
2023/04/19 11:54:36;;;;;;;;;;;;;;;23.82;21.68;101218.16;4929621;28;6961;-90
2023/04/19 11:57:07;;;;;;;;;;;;;;;23.79;21.59;101217.25;4927862;28;7051;-89
2023/04/19 11:59:35;;;;;;;;;;;;;;;23.79;21.84;101206.78;4939009;28;7264;-88
2023/04/19 12:02:09;;;;;;;;;;;;;;;23.82;21.71;101209.41;4910508;28;6980;-88
2023/04/19 12:04:36;;;;;;;;;;;;;;;23.84;21.23;101202.44;4908911;29;8484;-88
2023/04/19 12:07:05;;;;;;;;;;;;;;;23.76;21.15;101204.13;4937955;28;7087;-88
2023/04/19 12:09:35;;;;;;;;;;;;;;;23.65;21.68;101207.53;4919290;29;8415;-88
2023/04/19 12:12:02;;;;;;;;;;;;;;;23.54;21.36;101196.16;4939604;28;7061;-89
2023/04/19 12:14:29;;;;;;;;;;;;;;;23.39;21.00;101205.66;4918621;28;9021;-89
2023/04/19 12:17:10;;;;;;;;;;;;;;;23.23;21.16;101206.34;4929061;28;7280;-87
2023/04/19 12:19:43;;;;;;;;;;;;;;;23.12;21.31;101201.91;4935885;28;8804;-88
2023/04/19 12:22:27;;;;;;;;;;;;;;;23.13;21.31;101200.16;4910465;29;8898;-89
2023/04/19 12:24:54;;;;;;;;;;;;;;;23.16;21.56;101195.81;4945024;28;6804;-89
2023/04/19 12:27:20;;;;;;;;;;;;;;;23.16;21.58;101198.44;4923282;28;6973;-88
2023/04/19 12:29:46;;;;;;;;;;;;;;;23.26;22.07;101188.94;4904711;29;8413;-88
2023/04/19 12:32:14;;;;;;;;;;;;;;;23.39;22.04;101196.91;4933653;28;7343;-88
2023/04/19 12:34:40;;;;;;;;;;;;;;;23.55;21.72;101200.50;4915271;29;8681;-87
2023/04/19 12:37:05;;;;;;;;;;;;;;;23.73;21.37;101197.16;4934924;28;8751;-88
2023/04/19 12:39:31;;;;;;;;;;;;;;;23.79;21.48;101194.56;4924277;28;6955;-87
2023/04/19 12:41:57;;;;;;;;;;;;;;;23.80;21.21;101192.81;4947425;28;7073;-87
2023/04/19 12:44:23;;;;;;;;;;;;;;;23.86;21.25;101183.25;4922363;28;7060;-87
2023/04/19 12:46:48;;;;;;;;;;;;;;;23.82;20.81;101185.84;4913125;28;8741;-88
2023/04/19 12:49:18;;;;;;;;;;;;;;;23.81;21.08;101189.34;4932132;28;6926;-88
2023/04/19 12:51:46;;;;;;;;;;;;;;;23.76;20.83;101171.00;4934466;28;7383;-86